sensor_id;sensor_type;location;lat;lon;timestamp;temperature;humidity
40151;DHT22;25866;52.420;10.640;2024-02-28T00:01:37;4.30;99.90
40151;DHT22;25866;52.420;10.640;2024-02-28T00:04:03;4.30;99.90
40151;DHT22;25866;52.420;10.640;2024-02-28T00:06:29;4.30;99.90
40151;DHT22;25866;52.420;10.640;2024-02-28T00:08:55;4.20;99.90
40151;DHT22;25866;52.420;10.640;2024-02-28T00:11:21;4.30;99.90
40151;DHT22;25866;52.420;10.640;2024-02-28T00:13:47;4.20;99.90
40151;DHT22;25866;52.420;10.640;2024-02-28T00:16:12;4.20;99.90
40151;DHT22;25866;52.420;10.640;2024-02-28T00:18:38;4.30;99.90
40151;DHT22;25866;52.420;10.640;2024-02-28T00:21:04;4.30;99.90
40151;DHT22;25866;52.420;10.640;2024-02-28T00:23:30;4.20;99.90
40151;DHT22;25866;52.420;10.640;2024-02-28T00:25:56;4.20;99.90
40151;DHT22;25866;52.420;10.640;2024-02-28T00:28:22;4.20;99.90
40151;DHT22;25866;52.420;10.640;2024-02-28T00:30:48;4.30;99.90
40151;DHT22;25866;52.420;10.640;2024-02-28T00:33:13;4.20;99.90
40151;DHT22;25866;52.420;10.640;2024-02-28T00:35:39;4.20;99.90
40151;DHT22;25866;52.420;10.640;2024-02-28T00:38:05;4.30;99.90
40151;DHT22;25866;52.420;10.640;2024-02-28T00:40:31;4.30;99.90
40151;DHT22;25866;52.420;10.640;2024-02-28T00:42:57;4.20;99.90
40151;DHT22;25866;52.420;10.640;2024-02-28T00:45:23;4.20;99.90
40151;DHT22;25866;52.420;10.640;2024-02-28T00:47:49;4.20;99.90
40151;DHT22;25866;52.420;10.640;2024-02-28T00:50:15;4.20;99.90
40151;DHT22;25866;52.420;10.640;2024-02-28T00:52:41;4.10;99.90
40151;DHT22;25866;52.420;10.640;2024-02-28T00:55:07;4.10;99.90
40151;DHT22;25866;52.420;10.640;2024-02-28T00:57:33;4.10;99.90
40151;DHT22;25866;52.420;10.640;2024-02-28T01:02:36;4.10;99.90
40151;DHT22;25866;52.420;10.640;2024-02-28T01:05:01;4.00;99.90
40151;DHT22;25866;52.420;10.640;2024-02-28T01:07:27;4.10;99.90
40151;DHT22;25866;52.420;10.640;2024-02-28T01:09:53;4.00;99.90
40151;DHT22;25866;52.420;10.640;2024-02-28T01:12:20;4.10;99.90
40151;DHT22;25866;52.420;10.640;2024-02-28T01:14:46;4.10;99.90
40151;DHT22;25866;52.420;10.640;2024-02-28T01:17:12;4.00;99.90
40151;DHT22;25866;52.420;10.640;2024-02-28T01:19:38;4.10;99.90
40151;DHT22;25866;52.420;10.640;2024-02-28T01:22:06;4.10;99.90
40151;DHT22;25866;52.420;10.640;2024-02-28T01:24:31;4.00;99.90
40151;DHT22;25866;52.420;10.640;2024-02-28T01:26:59;4.00;99.90
40151;DHT22;25866;52.420;10.640;2024-02-28T01:29:24;4.00;99.90
40151;DHT22;25866;52.420;10.640;2024-02-28T01:31:50;4.00;99.90
40151;DHT22;25866;52.420;10.640;2024-02-28T01:34:17;4.00;99.90
40151;DHT22;25866;52.420;10.640;2024-02-28T01:36:44;4.00;99.90
40151;DHT22;25866;52.420;10.640;2024-02-28T01:39:09;4.00;99.90
40151;DHT22;25866;52.420;10.640;2024-02-28T01:41:35;3.90;99.90
40151;DHT22;25866;52.420;10.640;2024-02-28T01:44:01;3.90;99.90
40151;DHT22;25866;52.420;10.640;2024-02-28T01:46:28;3.90;99.90
40151;DHT22;25866;52.420;10.640;2024-02-28T01:48:55;4.00;99.90
40151;DHT22;25866;52.420;10.640;2024-02-28T01:51:24;4.00;99.90
40151;DHT22;25866;52.420;10.640;2024-02-28T01:53:53;3.90;99.90
40151;DHT22;25866;52.420;10.640;2024-02-28T01:56:20;3.90;99.90
40151;DHT22;25866;52.420;10.640;2024-02-28T01:58:47;3.80;99.90
40151;DHT22;25866;52.420;10.640;2024-02-28T02:01:17;3.90;99.90
40151;DHT22;25866;52.420;10.640;2024-02-28T02:03:44;3.80;99.90
40151;DHT22;25866;52.420;10.640;2024-02-28T02:06:10;3.80;99.90
40151;DHT22;25866;52.420;10.640;2024-02-28T02:08:37;3.80;99.90
40151;DHT22;25866;52.420;10.640;2024-02-28T02:11:03;3.90;99.90
40151;DHT22;25866;52.420;10.640;2024-02-28T02:13:29;3.80;99.90
40151;DHT22;25866;52.420;10.640;2024-02-28T02:15:55;3.80;99.90
40151;DHT22;25866;52.420;10.640;2024-02-28T02:18:21;3.80;99.90
40151;DHT22;25866;52.420;10.640;2024-02-28T02:20:50;3.80;99.90
40151;DHT22;25866;52.420;10.640;2024-02-28T02:23:24;3.80;99.90
40151;DHT22;25866;52.420;10.640;2024-02-28T02:25:49;3.80;99.90
40151;DHT22;25866;52.420;10.640;2024-02-28T02:28:15;3.80;99.90
40151;DHT22;25866;52.420;10.640;2024-02-28T02:30:41;3.80;99.90
40151;DHT22;25866;52.420;10.640;2024-02-28T02:33:08;3.80;99.90
40151;DHT22;25866;52.420;10.640;2024-02-28T02:35:34;3.70;99.90
40151;DHT22;25866;52.420;10.640;2024-02-28T02:38:00;3.80;99.90
40151;DHT22;25866;52.420;10.640;2024-02-28T02:40:26;3.80;99.90
40151;DHT22;25866;52.420;10.640;2024-02-28T02:42:52;3.70;99.90
40151;DHT22;25866;52.420;10.640;2024-02-28T02:45:18;3.70;99.90
40151;DHT22;25866;52.420;10.640;2024-02-28T02:47:43;3.70;99.90
40151;DHT22;25866;52.420;10.640;2024-02-28T02:50:09;3.70;99.90
40151;DHT22;25866;52.420;10.640;2024-02-28T02:52:36;3.70;99.90
40151;DHT22;25866;52.420;10.640;2024-02-28T02:55:02;3.70;99.90
40151;DHT22;25866;52.420;10.640;2024-02-28T02:57:32;3.70;99.90
40151;DHT22;25866;52.420;10.640;2024-02-28T02:59:58;3.70;99.90
40151;DHT22;25866;52.420;10.640;2024-02-28T03:02:24;3.70;99.90
40151;DHT22;25866;52.420;10.640;2024-02-28T03:04:52;3.60;99.90
40151;DHT22;25866;52.420;10.640;2024-02-28T03:07:18;3.70;99.90
40151;DHT22;25866;52.420;10.640;2024-02-28T03:09:43;3.70;99.90
40151;DHT22;25866;52.420;10.640;2024-02-28T03:12:09;3.60;99.90
40151;DHT22;25866;52.420;10.640;2024-02-28T03:14:35;3.60;99.90
40151;DHT22;25866;52.420;10.640;2024-02-28T03:17:01;3.60;99.90
40151;DHT22;25866;52.420;10.640;2024-02-28T03:19:27;3.50;99.90
40151;DHT22;25866;52.420;10.640;2024-02-28T03:21:53;3.50;99.90
40151;DHT22;25866;52.420;10.640;2024-02-28T03:24:19;3.60;99.90
40151;DHT22;25866;52.420;10.640;2024-02-28T03:26:44;3.60;99.90
40151;DHT22;25866;52.420;10.640;2024-02-28T03:29:10;3.50;99.90
40151;DHT22;25866;52.420;10.640;2024-02-28T03:31:36;3.60;99.90
40151;DHT22;25866;52.420;10.640;2024-02-28T03:34:04;3.60;99.90
40151;DHT22;25866;52.420;10.640;2024-02-28T03:36:30;3.60;99.90
40151;DHT22;25866;52.420;10.640;2024-02-28T03:38:55;3.60;99.90
40151;DHT22;25866;52.420;10.640;2024-02-28T03:41:22;3.50;99.90
40151;DHT22;25866;52.420;10.640;2024-02-28T03:43:47;3.40;99.90
40151;DHT22;25866;52.420;10.640;2024-02-28T03:46:13;3.30;99.90
40151;DHT22;25866;52.420;10.640;2024-02-28T03:48:39;3.30;99.90
40151;DHT22;25866;52.420;10.640;2024-02-28T03:51:04;3.30;99.90
40151;DHT22;25866;52.420;10.640;2024-02-28T03:53:30;3.30;99.90
40151;DHT22;25866;52.420;10.640;2024-02-28T03:55:56;3.30;99.90
40151;DHT22;25866;52.420;10.640;2024-02-28T03:58:22;3.20;99.90
40151;DHT22;25866;52.420;10.640;2024-02-28T04:00:48;3.10;99.90
40151;DHT22;25866;52.420;10.640;2024-02-28T04:03:14;3.20;99.90
40151;DHT22;25866;52.420;10.640;2024-02-28T04:05:41;3.10;99.90
40151;DHT22;25866;52.420;10.640;2024-02-28T04:08:07;3.10;99.90
40151;DHT22;25866;52.420;10.640;2024-02-28T04:10:33;3.10;99.90
40151;DHT22;25866;52.420;10.640;2024-02-28T04:12:59;3.00;99.90
40151;DHT22;25866;52.420;10.640;2024-02-28T04:15:25;3.10;99.90
40151;DHT22;25866;52.420;10.640;2024-02-28T04:17:51;3.10;99.90
40151;DHT22;25866;52.420;10.640;2024-02-28T04:20:18;3.10;99.90
40151;DHT22;25866;52.420;10.640;2024-02-28T04:22:43;3.20;99.90
40151;DHT22;25866;52.420;10.640;2024-02-28T04:25:09;3.20;99.90
40151;DHT22;25866;52.420;10.640;2024-02-28T04:27:36;3.10;99.90
40151;DHT22;25866;52.420;10.640;2024-02-28T04:30:02;3.20;99.90
40151;DHT22;25866;52.420;10.640;2024-02-28T04:32:28;3.20;99.90
40151;DHT22;25866;52.420;10.640;2024-02-28T04:34:55;3.20;99.90
40151;DHT22;25866;52.420;10.640;2024-02-28T04:37:21;3.10;99.90
40151;DHT22;25866;52.420;10.640;2024-02-28T04:39:47;3.10;99.90
40151;DHT22;25866;52.420;10.640;2024-02-28T04:42:13;3.10;99.90
40151;DHT22;25866;52.420;10.640;2024-02-28T04:44:39;3.10;99.90
40151;DHT22;25866;52.420;10.640;2024-02-28T04:47:05;3.10;99.90
40151;DHT22;25866;52.420;10.640;2024-02-28T04:49:30;3.10;99.90
40151;DHT22;25866;52.420;10.640;2024-02-28T04:51:56;3.10;99.90
40151;DHT22;25866;52.420;10.640;2024-02-28T04:54:23;3.00;99.90
40151;DHT22;25866;52.420;10.640;2024-02-28T04:56:49;3.10;99.90
40151;DHT22;25866;52.420;10.640;2024-02-28T04:59:17;3.10;99.90
40151;DHT22;25866;52.420;10.640;2024-02-28T05:01:42;3.10;99.90
40151;DHT22;25866;52.420;10.640;2024-02-28T05:04:09;3.10;99.90
40151;DHT22;25866;52.420;10.640;2024-02-28T05:06:35;3.10;99.90
40151;DHT22;25866;52.420;10.640;2024-02-28T05:09:01;3.10;99.90
40151;DHT22;25866;52.420;10.640;2024-02-28T05:11:27;3.10;99.90
40151;DHT22;25866;52.420;10.640;2024-02-28T05:13:53;3.00;99.90
40151;DHT22;25866;52.420;10.640;2024-02-28T05:16:21;3.00;99.90
40151;DHT22;25866;52.420;10.640;2024-02-28T05:18:46;3.00;99.90
40151;DHT22;25866;52.420;10.640;2024-02-28T05:21:13;2.90;99.90
40151;DHT22;25866;52.420;10.640;2024-02-28T05:23:40;3.00;99.90
40151;DHT22;25866;52.420;10.640;2024-02-28T05:26:08;3.00;99.90
40151;DHT22;25866;52.420;10.640;2024-02-28T05:28:33;3.00;99.90
40151;DHT22;25866;52.420;10.640;2024-02-28T05:31:25;3.10;99.90
40151;DHT22;25866;52.420;10.640;2024-02-28T05:33:56;3.10;99.90
40151;DHT22;25866;52.420;10.640;2024-02-28T05:36:25;3.10;99.90
40151;DHT22;25866;52.420;10.640;2024-02-28T05:38:53;3.10;99.90
40151;DHT22;25866;52.420;10.640;2024-02-28T05:41:19;3.10;99.90
40151;DHT22;25866;52.420;10.640;2024-02-28T05:43:45;3.10;99.90
40151;DHT22;25866;52.420;10.640;2024-02-28T05:46:15;3.10;99.90
40151;DHT22;25866;52.420;10.640;2024-02-28T05:48:41;3.20;99.90
40151;DHT22;25866;52.420;10.640;2024-02-28T05:51:07;3.20;99.90
40151;DHT22;25866;52.420;10.640;2024-02-28T05:53:33;3.20;99.90
40151;DHT22;25866;52.420;10.640;2024-02-28T05:56:02;3.20;99.90
40151;DHT22;25866;52.420;10.640;2024-02-28T05:58:29;3.20;99.90
40151;DHT22;25866;52.420;10.640;2024-02-28T06:00:54;3.20;99.90
40151;DHT22;25866;52.420;10.640;2024-02-28T06:03:20;3.20;99.90
40151;DHT22;25866;52.420;10.640;2024-02-28T06:05:52;3.20;99.90
40151;DHT22;25866;52.420;10.640;2024-02-28T06:08:18;3.10;99.90
40151;DHT22;25866;52.420;10.640;2024-02-28T06:10:43;3.20;99.90
40151;DHT22;25866;52.420;10.640;2024-02-28T06:13:12;3.10;99.90
40151;DHT22;25866;52.420;10.640;2024-02-28T06:15:38;3.10;99.90
40151;DHT22;25866;52.420;10.640;2024-02-28T06:18:04;3.10;99.90
40151;DHT22;25866;52.420;10.640;2024-02-28T06:20:30;3.20;99.90
40151;DHT22;25866;52.420;10.640;2024-02-28T06:22:56;3.20;99.90
40151;DHT22;25866;52.420;10.640;2024-02-28T06:25:23;3.20;99.90
40151;DHT22;25866;52.420;10.640;2024-02-28T06:27:50;3.20;99.90
40151;DHT22;25866;52.420;10.640;2024-02-28T06:30:16;3.10;99.90
40151;DHT22;25866;52.420;10.640;2024-02-28T06:32:42;3.20;99.90
40151;DHT22;25866;52.420;10.640;2024-02-28T06:35:09;3.20;99.90
40151;DHT22;25866;52.420;10.640;2024-02-28T06:37:45;3.10;99.90
40151;DHT22;25866;52.420;10.640;2024-02-28T06:40:15;3.10;99.90
40151;DHT22;25866;52.420;10.640;2024-02-28T06:42:41;3.10;99.90
40151;DHT22;25866;52.420;10.640;2024-02-28T06:45:07;3.10;99.90
40151;DHT22;25866;52.420;10.640;2024-02-28T06:47:34;3.10;99.90
40151;DHT22;25866;52.420;10.640;2024-02-28T06:50:02;3.10;99.90
40151;DHT22;25866;52.420;10.640;2024-02-28T06:52:28;3.10;99.90
40151;DHT22;25866;52.420;10.640;2024-02-28T06:54:54;3.20;99.90
40151;DHT22;25866;52.420;10.640;2024-02-28T06:57:20;3.20;99.90
40151;DHT22;25866;52.420;10.640;2024-02-28T06:59:45;3.20;99.90
40151;DHT22;25866;52.420;10.640;2024-02-28T07:02:11;3.30;99.90
40151;DHT22;25866;52.420;10.640;2024-02-28T07:04:38;3.30;99.90
40151;DHT22;25866;52.420;10.640;2024-02-28T07:07:12;3.30;99.90
40151;DHT22;25866;52.420;10.640;2024-02-28T07:09:38;3.20;99.90
40151;DHT22;25866;52.420;10.640;2024-02-28T07:12:04;3.30;99.90
40151;DHT22;25866;52.420;10.640;2024-02-28T07:14:30;3.30;99.90
40151;DHT22;25866;52.420;10.640;2024-02-28T07:17:02;3.30;99.90
40151;DHT22;25866;52.420;10.640;2024-02-28T07:19:28;3.30;99.90
40151;DHT22;25866;52.420;10.640;2024-02-28T07:21:53;3.30;99.90
40151;DHT22;25866;52.420;10.640;2024-02-28T07:24:19;3.30;99.90
40151;DHT22;25866;52.420;10.640;2024-02-28T07:26:46;3.40;99.90
40151;DHT22;25866;52.420;10.640;2024-02-28T07:29:12;3.40;99.90
40151;DHT22;25866;52.420;10.640;2024-02-28T07:31:37;3.30;99.90
40151;DHT22;25866;52.420;10.640;2024-02-28T07:34:03;3.40;99.90
40151;DHT22;25866;52.420;10.640;2024-02-28T07:36:31;3.40;99.90
40151;DHT22;25866;52.420;10.640;2024-02-28T07:38:56;3.30;99.90
40151;DHT22;25866;52.420;10.640;2024-02-28T07:41:22;3.30;99.90
40151;DHT22;25866;52.420;10.640;2024-02-28T07:43:49;3.30;99.90
40151;DHT22;25866;52.420;10.640;2024-02-28T07:46:16;3.30;99.90
40151;DHT22;25866;52.420;10.640;2024-02-28T07:48:42;3.40;99.90
40151;DHT22;25866;52.420;10.640;2024-02-28T07:51:08;3.30;99.90
40151;DHT22;25866;52.420;10.640;2024-02-28T07:53:35;3.30;99.90
40151;DHT22;25866;52.420;10.640;2024-02-28T07:56:01;3.30;99.90
40151;DHT22;25866;52.420;10.640;2024-02-28T07:58:32;3.40;99.90
40151;DHT22;25866;52.420;10.640;2024-02-28T08:00:58;3.40;99.90
40151;DHT22;25866;52.420;10.640;2024-02-28T08:03:23;3.40;99.90
40151;DHT22;25866;52.420;10.640;2024-02-28T08:05:49;3.40;99.90
40151;DHT22;25866;52.420;10.640;2024-02-28T08:08:16;3.40;99.90
40151;DHT22;25866;52.420;10.640;2024-02-28T08:10:42;3.50;99.90
40151;DHT22;25866;52.420;10.640;2024-02-28T08:13:07;3.50;99.90
40151;DHT22;25866;52.420;10.640;2024-02-28T08:15:33;3.50;99.90
40151;DHT22;25866;52.420;10.640;2024-02-28T08:18:01;3.60;99.90
40151;DHT22;25866;52.420;10.640;2024-02-28T08:20:27;3.60;99.90
40151;DHT22;25866;52.420;10.640;2024-02-28T08:22:52;3.70;99.90
40151;DHT22;25866;52.420;10.640;2024-02-28T08:25:19;3.60;99.90
40151;DHT22;25866;52.420;10.640;2024-02-28T08:27:51;3.60;99.90
40151;DHT22;25866;52.420;10.640;2024-02-28T08:30:17;3.70;99.90
40151;DHT22;25866;52.420;10.640;2024-02-28T08:32:43;3.70;99.90
40151;DHT22;25866;52.420;10.640;2024-02-28T08:35:09;3.80;99.90
40151;DHT22;25866;52.420;10.640;2024-02-28T08:37:40;3.80;99.90
40151;DHT22;25866;52.420;10.640;2024-02-28T08:40:07;3.90;99.90
40151;DHT22;25866;52.420;10.640;2024-02-28T08:42:34;4.00;99.90
40151;DHT22;25866;52.420;10.640;2024-02-28T08:45:00;4.00;99.90
40151;DHT22;25866;52.420;10.640;2024-02-28T08:47:27;4.00;99.90
40151;DHT22;25866;52.420;10.640;2024-02-28T08:49:53;4.00;99.90
40151;DHT22;25866;52.420;10.640;2024-02-28T08:52:20;4.10;99.90
40151;DHT22;25866;52.420;10.640;2024-02-28T08:54:46;4.10;99.90
40151;DHT22;25866;52.420;10.640;2024-02-28T08:57:14;4.20;99.90
40151;DHT22;25866;52.420;10.640;2024-02-28T08:59:40;4.20;99.90
40151;DHT22;25866;52.420;10.640;2024-02-28T09:02:06;4.20;99.90
40151;DHT22;25866;52.420;10.640;2024-02-28T09:04:32;4.10;99.90
40151;DHT22;25866;52.420;10.640;2024-02-28T09:06:58;4.10;99.90
40151;DHT22;25866;52.420;10.640;2024-02-28T09:09:23;4.10;99.90
40151;DHT22;25866;52.420;10.640;2024-02-28T09:11:49;4.00;99.90
40151;DHT22;25866;52.420;10.640;2024-02-28T09:14:15;4.00;99.90
40151;DHT22;25866;52.420;10.640;2024-02-28T09:16:40;4.10;99.90
40151;DHT22;25866;52.420;10.640;2024-02-28T09:19:07;4.20;99.90
40151;DHT22;25866;52.420;10.640;2024-02-28T09:21:33;4.30;99.90
40151;DHT22;25866;52.420;10.640;2024-02-28T09:24:00;4.30;99.90
40151;DHT22;25866;52.420;10.640;2024-02-28T09:26:26;4.30;99.90
40151;DHT22;25866;52.420;10.640;2024-02-28T09:28:53;4.40;99.90
40151;DHT22;25866;52.420;10.640;2024-02-28T09:31:19;4.50;99.90
40151;DHT22;25866;52.420;10.640;2024-02-28T09:33:45;4.60;99.90
40151;DHT22;25866;52.420;10.640;2024-02-28T09:36:12;4.70;99.90
40151;DHT22;25866;52.420;10.640;2024-02-28T09:38:38;4.80;99.90
40151;DHT22;25866;52.420;10.640;2024-02-28T09:41:03;4.90;99.90
40151;DHT22;25866;52.420;10.640;2024-02-28T09:43:31;4.80;99.90
40151;DHT22;25866;52.420;10.640;2024-02-28T09:46:03;4.80;99.90
40151;DHT22;25866;52.420;10.640;2024-02-28T09:48:31;4.90;99.90
40151;DHT22;25866;52.420;10.640;2024-02-28T09:50:58;5.10;99.90
40151;DHT22;25866;52.420;10.640;2024-02-28T09:53:25;5.20;99.90
40151;DHT22;25866;52.420;10.640;2024-02-28T09:55:51;5.30;99.90
40151;DHT22;25866;52.420;10.640;2024-02-28T09:58:18;5.40;99.90
40151;DHT22;25866;52.420;10.640;2024-02-28T10:00:47;5.40;99.90
40151;DHT22;25866;52.420;10.640;2024-02-28T10:03:17;5.50;99.90
40151;DHT22;25866;52.420;10.640;2024-02-28T10:05:45;5.60;99.90
40151;DHT22;25866;52.420;10.640;2024-02-28T10:08:12;5.80;99.90
40151;DHT22;25866;52.420;10.640;2024-02-28T10:10:49;5.80;99.90
40151;DHT22;25866;52.420;10.640;2024-02-28T10:13:18;5.70;99.90
40151;DHT22;25866;52.420;10.640;2024-02-28T10:15:44;5.70;99.90
40151;DHT22;25866;52.420;10.640;2024-02-28T10:18:11;5.80;99.90
40151;DHT22;25866;52.420;10.640;2024-02-28T10:20:37;5.90;99.90
40151;DHT22;25866;52.420;10.640;2024-02-28T10:23:11;5.80;99.90
40151;DHT22;25866;52.420;10.640;2024-02-28T10:25:46;5.80;99.90
40151;DHT22;25866;52.420;10.640;2024-02-28T10:28:14;5.80;99.90
40151;DHT22;25866;52.420;10.640;2024-02-28T10:30:41;5.80;99.90
40151;DHT22;25866;52.420;10.640;2024-02-28T10:33:14;5.80;99.90
40151;DHT22;25866;52.420;10.640;2024-02-28T10:35:43;5.90;99.90
40151;DHT22;25866;52.420;10.640;2024-02-28T10:38:11;6.00;99.90
40151;DHT22;25866;52.420;10.640;2024-02-28T10:40:41;6.20;99.90
40151;DHT22;25866;52.420;10.640;2024-02-28T10:43:10;6.40;99.90
40151;DHT22;25866;52.420;10.640;2024-02-28T10:45:37;6.40;99.90
40151;DHT22;25866;52.420;10.640;2024-02-28T10:48:06;6.40;99.90
40151;DHT22;25866;52.420;10.640;2024-02-28T10:50:33;6.20;99.90
40151;DHT22;25866;52.420;10.640;2024-02-28T10:53:02;6.20;99.90
40151;DHT22;25866;52.420;10.640;2024-02-28T10:55:33;6.20;99.90
40151;DHT22;25866;52.420;10.640;2024-02-28T10:58:03;6.20;99.90
40151;DHT22;25866;52.420;10.640;2024-02-28T11:00:36;6.10;99.90
40151;DHT22;25866;52.420;10.640;2024-02-28T11:03:04;6.20;99.90
40151;DHT22;25866;52.420;10.640;2024-02-28T11:08:10;6.30;99.90
40151;DHT22;25866;52.420;10.640;2024-02-28T11:10:56;6.40;99.90
40151;DHT22;25866;52.420;10.640;2024-02-28T11:13:23;6.40;99.90
40151;DHT22;25866;52.420;10.640;2024-02-28T11:15:49;6.40;99.90
40151;DHT22;25866;52.420;10.640;2024-02-28T11:18:14;6.40;99.90
40151;DHT22;25866;52.420;10.640;2024-02-28T11:20:40;6.50;99.90
40151;DHT22;25866;52.420;10.640;2024-02-28T11:23:09;6.60;99.90
40151;DHT22;25866;52.420;10.640;2024-02-28T11:25:35;6.70;99.90
40151;DHT22;25866;52.420;10.640;2024-02-28T11:28:01;6.80;99.90
40151;DHT22;25866;52.420;10.640;2024-02-28T11:30:27;7.00;99.90
40151;DHT22;25866;52.420;10.640;2024-02-28T11:32:53;7.00;99.90
40151;DHT22;25866;52.420;10.640;2024-02-28T11:35:20;7.00;99.90
40151;DHT22;25866;52.420;10.640;2024-02-28T11:37:47;6.90;99.90
40151;DHT22;25866;52.420;10.640;2024-02-28T11:40:13;7.10;99.90
40151;DHT22;25866;52.420;10.640;2024-02-28T11:42:39;7.20;99.90
40151;DHT22;25866;52.420;10.640;2024-02-28T11:45:09;7.30;99.90
40151;DHT22;25866;52.420;10.640;2024-02-28T11:47:35;7.50;99.90
40151;DHT22;25866;52.420;10.640;2024-02-28T11:50:12;7.60;99.90
40151;DHT22;25866;52.420;10.640;2024-02-28T11:52:40;7.70;99.90
40151;DHT22;25866;52.420;10.640;2024-02-28T11:55:06;7.70;99.90
40151;DHT22;25866;52.420;10.640;2024-02-28T11:57:32;7.40;99.90
40151;DHT22;25866;52.420;10.640;2024-02-28T12:00:09;7.10;99.90
40151;DHT22;25866;52.420;10.640;2024-02-28T12:02:38;7.10;99.90
40151;DHT22;25866;52.420;10.640;2024-02-28T12:05:04;7.10;99.90
40151;DHT22;25866;52.420;10.640;2024-02-28T12:07:31;7.40;99.90
40151;DHT22;25866;52.420;10.640;2024-02-28T12:09:58;7.40;99.90
40151;DHT22;25866;52.420;10.640;2024-02-28T12:12:24;7.50;99.90
40151;DHT22;25866;52.420;10.640;2024-02-28T12:14:50;7.50;99.90
40151;DHT22;25866;52.420;10.640;2024-02-28T12:17:16;7.40;99.90
40151;DHT22;25866;52.420;10.640;2024-02-28T12:19:42;7.10;99.90
40151;DHT22;25866;52.420;10.640;2024-02-28T12:22:08;7.00;99.90
40151;DHT22;25866;52.420;10.640;2024-02-28T12:24:34;6.90;99.90
40151;DHT22;25866;52.420;10.640;2024-02-28T12:27:00;7.00;99.90
40151;DHT22;25866;52.420;10.640;2024-02-28T12:29:26;6.90;99.90
40151;DHT22;25866;52.420;10.640;2024-02-28T12:32:00;6.80;99.90
40151;DHT22;25866;52.420;10.640;2024-02-28T12:34:26;6.70;99.90
40151;DHT22;25866;52.420;10.640;2024-02-28T12:36:52;6.80;99.90
40151;DHT22;25866;52.420;10.640;2024-02-28T12:39:17;7.00;99.90
40151;DHT22;25866;52.420;10.640;2024-02-28T12:41:50;7.10;99.90
40151;DHT22;25866;52.420;10.640;2024-02-28T12:44:16;7.30;99.90
40151;DHT22;25866;52.420;10.640;2024-02-28T12:46:42;7.50;99.90
40151;DHT22;25866;52.420;10.640;2024-02-28T12:49:08;7.60;99.90
40151;DHT22;25866;52.420;10.640;2024-02-28T12:51:47;7.50;99.90
40151;DHT22;25866;52.420;10.640;2024-02-28T12:54:14;7.40;99.90
40151;DHT22;25866;52.420;10.640;2024-02-28T12:56:41;7.30;99.90
40151;DHT22;25866;52.420;10.640;2024-02-28T12:59:10;7.30;99.90
40151;DHT22;25866;52.420;10.640;2024-02-28T13:01:36;7.40;99.90
40151;DHT22;25866;52.420;10.640;2024-02-28T13:04:02;7.50;99.90
40151;DHT22;25866;52.420;10.640;2024-02-28T13:06:28;7.50;99.90
40151;DHT22;25866;52.420;10.640;2024-02-28T13:08:54;7.70;99.90
40151;DHT22;25866;52.420;10.640;2024-02-28T13:11:22;7.80;99.90
40151;DHT22;25866;52.420;10.640;2024-02-28T13:13:48;8.00;99.90
40151;DHT22;25866;52.420;10.640;2024-02-28T13:16:18;8.00;99.90
40151;DHT22;25866;52.420;10.640;2024-02-28T13:18:45;8.10;99.90
40151;DHT22;25866;52.420;10.640;2024-02-28T13:21:11;8.10;99.90
40151;DHT22;25866;52.420;10.640;2024-02-28T13:23:37;8.20;99.90
40151;DHT22;25866;52.420;10.640;2024-02-28T13:26:06;8.00;99.90
40151;DHT22;25866;52.420;10.640;2024-02-28T13:28:33;7.80;99.90
40151;DHT22;25866;52.420;10.640;2024-02-28T13:31:03;7.90;99.90
40151;DHT22;25866;52.420;10.640;2024-02-28T13:33:31;8.00;99.90
40151;DHT22;25866;52.420;10.640;2024-02-28T13:35:57;8.10;99.90
40151;DHT22;25866;52.420;10.640;2024-02-28T13:38:23;8.20;99.90
40151;DHT22;25866;52.420;10.640;2024-02-28T13:40:51;8.20;99.90
40151;DHT22;25866;52.420;10.640;2024-02-28T13:43:18;8.10;99.90
40151;DHT22;25866;52.420;10.640;2024-02-28T13:45:49;8.00;99.90
40151;DHT22;25866;52.420;10.640;2024-02-28T13:48:22;8.10;99.90
40151;DHT22;25866;52.420;10.640;2024-02-28T13:50:51;8.00;99.90
40151;DHT22;25866;52.420;10.640;2024-02-28T13:53:17;8.20;99.90
40151;DHT22;25866;52.420;10.640;2024-02-28T13:55:44;8.10;99.90
40151;DHT22;25866;52.420;10.640;2024-02-28T13:58:14;8.20;99.90
40151;DHT22;25866;52.420;10.640;2024-02-28T14:00:43;8.20;99.90
40151;DHT22;25866;52.420;10.640;2024-02-28T14:03:11;8.30;99.90
40151;DHT22;25866;52.420;10.640;2024-02-28T14:05:37;8.30;99.90
40151;DHT22;25866;52.420;10.640;2024-02-28T14:08:03;8.30;99.90
40151;DHT22;25866;52.420;10.640;2024-02-28T14:10:29;8.20;99.90
40151;DHT22;25866;52.420;10.640;2024-02-28T14:12:56;8.00;99.90
40151;DHT22;25866;52.420;10.640;2024-02-28T14:15:22;8.00;99.90
40151;DHT22;25866;52.420;10.640;2024-02-28T14:17:48;8.00;99.90
40151;DHT22;25866;52.420;10.640;2024-02-28T14:20:14;7.90;99.90
40151;DHT22;25866;52.420;10.640;2024-02-28T14:22:41;7.90;99.90
40151;DHT22;25866;52.420;10.640;2024-02-28T14:25:17;7.90;99.90
40151;DHT22;25866;52.420;10.640;2024-02-28T14:27:47;7.90;99.90
40151;DHT22;25866;52.420;10.640;2024-02-28T14:30:14;7.90;99.90
40151;DHT22;25866;52.420;10.640;2024-02-28T14:32:41;7.90;99.90
40151;DHT22;25866;52.420;10.640;2024-02-28T14:35:08;7.90;99.90
40151;DHT22;25866;52.420;10.640;2024-02-28T14:37:35;7.70;99.90
40151;DHT22;25866;52.420;10.640;2024-02-28T14:40:02;7.70;99.90
40151;DHT22;25866;52.420;10.640;2024-02-28T14:42:32;7.70;99.90
40151;DHT22;25866;52.420;10.640;2024-02-28T14:44:59;7.60;99.90
40151;DHT22;25866;52.420;10.640;2024-02-28T14:47:25;7.50;99.90
40151;DHT22;25866;52.420;10.640;2024-02-28T14:49:51;7.50;99.90
40151;DHT22;25866;52.420;10.640;2024-02-28T14:52:16;7.30;99.90
40151;DHT22;25866;52.420;10.640;2024-02-28T14:54:42;7.30;99.90
40151;DHT22;25866;52.420;10.640;2024-02-28T14:57:10;7.20;99.90
40151;DHT22;25866;52.420;10.640;2024-02-28T14:59:36;7.20;99.90
40151;DHT22;25866;52.420;10.640;2024-02-28T15:02:01;7.20;99.90
40151;DHT22;25866;52.420;10.640;2024-02-28T15:04:27;7.20;99.90
40151;DHT22;25866;52.420;10.640;2024-02-28T15:06:53;7.20;99.90
40151;DHT22;25866;52.420;10.640;2024-02-28T15:09:19;7.30;99.90
40151;DHT22;25866;52.420;10.640;2024-02-28T15:11:49;7.20;99.90
40151;DHT22;25866;52.420;10.640;2024-02-28T15:14:15;7.20;99.90
40151;DHT22;25866;52.420;10.640;2024-02-28T15:16:41;7.20;99.90
40151;DHT22;25866;52.420;10.640;2024-02-28T15:19:07;7.00;99.90
40151;DHT22;25866;52.420;10.640;2024-02-28T15:21:33;7.00;99.90
40151;DHT22;25866;52.420;10.640;2024-02-28T15:23:58;6.90;99.90
40151;DHT22;25866;52.420;10.640;2024-02-28T15:26:24;6.80;99.90
40151;DHT22;25866;52.420;10.640;2024-02-28T15:28:50;6.80;99.90
40151;DHT22;25866;52.420;10.640;2024-02-28T15:31:16;6.80;99.90
40151;DHT22;25866;52.420;10.640;2024-02-28T15:33:43;6.70;99.90